createdAt,value
2023-02-20T00:01:47.143Z,5.70
2023-02-20T00:04:15.193Z,5.70
2023-02-20T00:06:43.453Z,5.70
2023-02-20T00:09:12.864Z,5.70
2023-02-20T00:11:40.870Z,5.70
2023-02-20T00:14:08.956Z,5.70
2023-02-20T00:16:36.942Z,5.80
2023-02-20T00:19:05.676Z,5.80
2023-02-20T00:21:33.810Z,5.80
2023-02-20T00:24:01.745Z,5.80
2023-02-20T00:26:31.096Z,5.80
2023-02-20T00:28:59.302Z,5.80
2023-02-20T00:31:27.314Z,5.80
2023-02-20T00:33:55.434Z,5.80
2023-02-20T00:36:23.583Z,5.80
2023-02-20T00:38:51.534Z,5.80
2023-02-20T00:41:19.560Z,5.70
2023-02-20T00:43:48.883Z,5.80
2023-02-20T00:46:18.010Z,5.80
2023-02-20T00:48:46.003Z,5.80
2023-02-20T00:51:13.977Z,5.80
2023-02-20T00:53:41.976Z,5.90
2023-02-20T00:56:10.133Z,5.90
2023-02-20T00:58:38.271Z,5.80
2023-02-20T01:01:07.957Z,5.90
2023-02-20T01:03:36.076Z,5.90
2023-02-20T01:06:04.082Z,5.90
2023-02-20T01:08:32.064Z,5.90
2023-02-20T01:10:59.986Z,5.90
2023-02-20T01:13:27.965Z,5.90
2023-02-20T01:15:56.011Z,5.80
2023-02-20T01:18:26.818Z,5.90
2023-02-20T01:20:54.776Z,5.90
2023-02-20T01:23:22.828Z,5.90
2023-02-20T01:25:50.806Z,5.90
2023-02-20T01:28:18.779Z,5.80
2023-02-20T01:30:46.845Z,5.90
2023-02-20T01:33:14.881Z,5.90
2023-02-20T01:35:44.231Z,5.90
2023-02-20T01:38:12.187Z,5.90
2023-02-20T01:40:40.186Z,5.90
2023-02-20T01:43:09.459Z,5.90
2023-02-20T01:45:38.332Z,5.90
2023-02-20T01:48:19.696Z,5.90
2023-02-20T01:50:49.678Z,6.00
2023-02-20T01:53:20.945Z,6.00
2023-02-20T01:55:50.451Z,6.00
2023-02-20T01:58:20.293Z,6.00
2023-02-20T02:00:48.250Z,6.00
2023-02-20T02:03:20.819Z,6.00
2023-02-20T02:05:54.804Z,6.00
2023-02-20T02:08:24.042Z,6.00
2023-02-20T02:10:54.915Z,6.00
2023-02-20T02:13:23.088Z,6.10
2023-02-20T02:15:52.538Z,6.10
2023-02-20T02:18:41.102Z,6.10
2023-02-20T02:21:31.439Z,6.10
2023-02-20T02:24:17.207Z,6.10
2023-02-20T02:26:58.317Z,6.10
2023-02-20T02:29:39.045Z,6.10
2023-02-20T02:32:27.036Z,6.10
2023-02-20T02:35:13.667Z,6.20
2023-02-20T02:37:46.905Z,6.20
2023-02-20T02:40:19.966Z,6.20
2023-02-20T02:42:50.802Z,6.20
2023-02-20T02:45:20.356Z,6.20
2023-02-20T02:47:50.958Z,6.20
2023-02-20T02:50:21.586Z,6.20
2023-02-20T02:52:51.711Z,6.20
2023-02-20T02:55:21.725Z,6.20
2023-02-20T02:57:49.909Z,6.20
2023-02-20T03:00:19.903Z,6.20
2023-02-20T03:02:51.965Z,6.20
2023-02-20T03:05:21.296Z,6.30
2023-02-20T03:07:51.524Z,6.30
2023-02-20T03:10:31.803Z,6.30
2023-02-20T03:13:02.949Z,6.30
2023-02-20T03:15:33.952Z,6.30
2023-02-20T03:18:10.638Z,6.40
2023-02-20T03:20:40.631Z,6.40
2023-02-20T03:23:09.703Z,6.40
2023-02-20T03:25:40.267Z,6.40
2023-02-20T03:28:10.943Z,6.40
2023-02-20T03:30:41.860Z,6.40
2023-02-20T03:33:31.840Z,6.50
2023-02-20T03:36:18.942Z,6.50
2023-02-20T03:39:05.947Z,7.30
2023-02-20T03:41:54.280Z,6.50
2023-02-20T03:44:23.700Z,6.50
2023-02-20T03:46:52.732Z,6.60
2023-02-20T03:49:21.868Z,6.60
2023-02-20T03:51:58.818Z,6.50
2023-02-20T03:54:27.532Z,6.60
2023-02-20T03:56:58.522Z,6.60
2023-02-20T03:59:28.199Z,6.60
2023-02-20T04:01:58.490Z,6.60
2023-02-20T04:04:29.420Z,6.60
2023-02-20T04:06:57.893Z,6.60
2023-02-20T04:09:28.123Z,6.60
2023-02-20T04:12:00.648Z,6.60
2023-02-20T04:14:30.566Z,6.70
2023-02-20T04:17:01.259Z,6.60
2023-02-20T04:19:29.669Z,6.70
2023-02-20T04:21:59.499Z,6.70
2023-02-20T04:24:32.473Z,6.70
2023-02-20T04:27:01.974Z,6.70
2023-02-20T04:29:32.061Z,6.70
2023-02-20T04:32:00.277Z,6.70
2023-02-20T04:34:30.040Z,6.70
2023-02-20T04:37:05.729Z,6.70
2023-02-20T04:39:36.888Z,6.80
2023-02-20T04:42:06.370Z,6.80
2023-02-20T04:44:35.274Z,6.80
2023-02-20T04:47:05.130Z,6.80
2023-02-20T04:49:33.198Z,6.80
2023-02-20T04:52:01.224Z,6.90
2023-02-20T04:54:29.209Z,6.90
2023-02-20T04:56:57.225Z,6.90
2023-02-20T04:59:26.598Z,6.90
2023-02-20T05:01:54.894Z,6.90
2023-02-20T05:04:22.926Z,7.00
2023-02-20T05:06:52.319Z,7.00
2023-02-20T05:09:20.317Z,7.00
2023-02-20T05:11:48.587Z,7.00
2023-02-20T05:14:16.942Z,6.90
2023-02-20T05:16:46.380Z,7.00
2023-02-20T05:19:14.748Z,7.00
2023-02-20T05:22:00.603Z,6.90
2023-02-20T05:24:29.786Z,6.90
2023-02-20T05:26:57.857Z,6.90
2023-02-20T05:29:25.928Z,6.90
2023-02-20T05:31:55.374Z,6.90
2023-02-20T05:34:25.602Z,6.90
2023-02-20T05:36:53.708Z,6.90
2023-02-20T05:39:21.803Z,6.90
2023-02-20T05:41:50.304Z,6.90
2023-02-20T05:44:18.341Z,6.90
2023-02-20T05:46:46.450Z,7.10
2023-02-20T05:49:17.689Z,6.80
2023-02-20T05:51:45.864Z,6.80
2023-02-20T05:54:13.953Z,6.80
2023-02-20T05:56:42.391Z,6.80
2023-02-20T05:59:10.386Z,6.80
2023-02-20T06:01:38.388Z,6.80
2023-02-20T06:04:06.652Z,6.80
2023-02-20T06:06:36.915Z,6.80
2023-02-20T06:09:07.428Z,6.80
2023-02-20T06:11:35.673Z,6.80
2023-02-20T06:14:04.041Z,6.80
2023-02-20T06:16:32.066Z,6.80
2023-02-20T06:19:00.978Z,6.80
2023-02-20T06:21:33.697Z,6.80
2023-02-20T06:24:03.111Z,6.80
2023-02-20T06:26:31.136Z,6.80
2023-02-20T06:28:59.117Z,6.80
2023-02-20T06:31:29.426Z,6.80
2023-02-20T06:33:57.454Z,6.80
2023-02-20T06:36:26.815Z,6.90
2023-02-20T06:38:58.035Z,6.90
2023-02-20T06:41:27.762Z,6.90
2023-02-20T06:43:56.061Z,6.90
2023-02-20T06:46:24.202Z,6.90
2023-02-20T06:48:53.189Z,6.90
2023-02-20T06:51:24.522Z,6.90
2023-02-20T06:53:52.511Z,6.90
2023-02-20T06:56:21.235Z,7.00
2023-02-20T06:58:51.193Z,7.00
2023-02-20T07:01:20.271Z,7.00
2023-02-20T07:03:49.096Z,7.00
2023-02-20T07:06:17.190Z,7.00
2023-02-20T07:08:45.158Z,7.10
2023-02-20T07:11:13.669Z,7.10
2023-02-20T07:13:41.684Z,7.10
2023-02-20T07:16:11.271Z,7.10
2023-02-20T07:18:39.407Z,7.10
2023-02-20T07:21:10.443Z,7.20
2023-02-20T07:23:39.585Z,7.20
2023-02-20T07:26:07.612Z,7.20
2023-02-20T07:28:35.940Z,7.20
2023-02-20T07:31:04.137Z,7.20
2023-02-20T07:33:33.709Z,7.20
2023-02-20T07:36:01.715Z,7.30
2023-02-20T07:38:30.161Z,7.30
2023-02-20T07:40:58.111Z,7.30
2023-02-20T07:43:26.093Z,7.30
2023-02-20T07:45:54.140Z,7.30
2023-02-20T07:48:22.120Z,7.30
2023-02-20T07:50:52.840Z,7.40
2023-02-20T07:53:21.600Z,7.40
2023-02-20T07:55:49.630Z,7.40
2023-02-20T07:58:17.610Z,7.40
2023-02-20T08:00:45.800Z,7.40
2023-02-20T08:03:13.741Z,7.50
2023-02-20T08:05:49.206Z,7.50
2023-02-20T08:08:19.064Z,7.50
2023-02-20T08:10:47.934Z,7.50
2023-02-20T08:13:17.147Z,7.50
2023-02-20T08:15:47.290Z,7.60
2023-02-20T08:18:23.139Z,7.60
2023-02-20T08:20:52.784Z,7.60
2023-02-20T08:23:23.988Z,7.60
2023-02-20T08:25:52.070Z,7.60
2023-02-20T08:28:20.387Z,7.70
2023-02-20T08:30:48.555Z,7.70
2023-02-20T08:33:16.810Z,7.70
2023-02-20T08:35:44.800Z,7.70
2023-02-20T08:38:25.384Z,7.70
2023-02-20T08:40:53.589Z,7.70
2023-02-20T08:43:21.553Z,7.70
2023-02-20T08:45:49.701Z,7.70
2023-02-20T08:48:20.882Z,7.80
2023-02-20T08:50:49.008Z,7.80
2023-02-20T08:53:17.033Z,7.80
2023-02-20T08:55:46.541Z,7.90
2023-02-20T08:58:14.518Z,7.90
2023-02-20T09:00:42.544Z,7.90
2023-02-20T09:03:10.684Z,7.90
2023-02-20T09:05:39.400Z,7.90
2023-02-20T09:08:07.506Z,7.90
2023-02-20T09:10:35.636Z,8.00
2023-02-20T09:13:04.964Z,8.00
2023-02-20T09:15:39.564Z,8.00
2023-02-20T09:18:09.469Z,8.00
2023-02-20T09:20:38.585Z,8.10
2023-02-20T09:23:07.317Z,8.10
2023-02-20T09:25:35.877Z,8.10
2023-02-20T09:28:05.401Z,8.20
2023-02-20T09:30:33.560Z,8.20
2023-02-20T09:33:01.590Z,8.20
2023-02-20T09:35:31.961Z,8.20
2023-02-20T09:38:00.151Z,8.20
2023-02-20T09:40:29.436Z,8.20
2023-02-20T09:43:13.214Z,8.20
2023-02-20T09:45:45.073Z,8.30
2023-02-20T09:48:18.020Z,8.30
2023-02-20T09:50:48.969Z,8.30
2023-02-20T09:53:19.456Z,8.30
2023-02-20T09:55:48.344Z,8.30
2023-02-20T09:58:20.549Z,8.30
2023-02-20T10:00:51.195Z,8.40
2023-02-20T10:03:22.143Z,8.40
2023-02-20T10:05:50.288Z,8.40
2023-02-20T10:08:20.130Z,8.40
2023-02-20T10:10:50.104Z,8.40
2023-02-20T10:13:30.478Z,8.40
2023-02-20T10:16:04.291Z,8.50
2023-02-20T10:18:35.785Z,8.50
2023-02-20T10:21:08.545Z,8.50
2023-02-20T10:23:42.501Z,8.50
2023-02-20T10:26:14.600Z,8.60
2023-02-20T10:28:42.747Z,8.60
2023-02-20T10:31:21.324Z,8.60
2023-02-20T10:33:52.237Z,8.60
2023-02-20T10:36:21.965Z,8.60
2023-02-20T10:38:53.334Z,8.60
2023-02-20T10:41:25.054Z,8.70
2023-02-20T10:43:56.436Z,8.70
2023-02-20T10:46:36.894Z,8.70
2023-02-20T10:49:14.988Z,8.70
2023-02-20T10:51:44.550Z,8.70
2023-02-20T10:54:15.302Z,8.70
2023-02-20T10:56:46.314Z,8.70
2023-02-20T10:59:18.048Z,8.70
2023-02-20T11:01:49.440Z,8.70
2023-02-20T11:04:20.881Z,8.70
2023-02-20T11:06:55.644Z,8.70
2023-02-20T11:09:25.527Z,8.70
2023-02-20T11:11:53.942Z,8.80
2023-02-20T11:14:37.891Z,8.80
2023-02-20T11:17:12.578Z,8.80
2023-02-20T11:19:42.675Z,8.80
2023-02-20T11:22:10.877Z,8.80
2023-02-20T11:24:39.427Z,8.80
2023-02-20T11:27:09.048Z,8.80
2023-02-20T11:29:42.084Z,8.80
2023-02-20T11:32:29.229Z,8.80
2023-02-20T11:35:15.593Z,8.80
2023-02-20T11:37:54.403Z,8.90
2023-02-20T11:40:27.234Z,8.90
2023-02-20T11:42:55.464Z,8.90
2023-02-20T11:45:24.906Z,8.90
2023-02-20T11:48:08.790Z,8.90
2023-02-20T11:50:42.363Z,8.90
2023-02-20T11:53:19.122Z,8.90
2023-02-20T11:55:59.550Z,8.90
2023-02-20T11:58:28.941Z,9.00
2023-02-20T12:00:57.021Z,9.00
2023-02-20T12:03:28.457Z,9.00
2023-02-20T12:05:57.203Z,9.00
2023-02-20T12:08:32.779Z,9.00
2023-02-20T12:11:02.064Z,9.00
2023-02-20T12:13:31.981Z,9.00
2023-02-20T12:16:02.938Z,9.00
2023-02-20T12:18:51.997Z,9.10
2023-02-20T12:21:29.422Z,9.10
2023-02-20T12:24:03.738Z,9.10
2023-02-20T12:26:38.480Z,9.10
2023-02-20T12:29:13.212Z,9.10
2023-02-20T12:31:48.574Z,9.10
2023-02-20T12:34:26.296Z,9.10
2023-02-20T12:36:59.335Z,9.20
2023-02-20T12:39:34.576Z,9.10
2023-02-20T12:42:12.859Z,9.20
2023-02-20T12:44:45.598Z,9.10
2023-02-20T12:47:18.587Z,9.20
2023-02-20T12:49:54.067Z,9.20
2023-02-20T12:52:31.719Z,9.20
2023-02-20T12:55:03.062Z,9.20
2023-02-20T12:57:35.443Z,9.20
2023-02-20T13:00:05.491Z,9.20
2023-02-20T13:02:42.372Z,9.20
2023-02-20T13:05:13.109Z,9.20
2023-02-20T13:07:46.873Z,9.20
2023-02-20T13:10:17.289Z,9.20
2023-02-20T13:12:45.295Z,9.20
2023-02-20T13:15:23.952Z,9.20
2023-02-20T13:17:54.762Z,9.20
2023-02-20T13:20:24.615Z,9.20
2023-02-20T13:23:03.856Z,9.20
2023-02-20T13:25:42.675Z,9.20
2023-02-20T13:28:31.580Z,9.20
2023-02-20T13:31:09.767Z,9.20
2023-02-20T13:33:38.241Z,9.20
2023-02-20T13:36:07.136Z,9.20
2023-02-20T13:38:36.501Z,9.20
2023-02-20T13:41:05.855Z,9.20
2023-02-20T13:43:34.774Z,9.20
2023-02-20T13:46:24.960Z,9.30
2023-02-20T13:48:54.099Z,9.30
2023-02-20T13:51:32.240Z,9.30
2023-02-20T13:54:08.923Z,9.30
2023-02-20T13:56:44.715Z,9.30
2023-02-20T13:59:14.891Z,9.40
2023-02-20T14:01:59.375Z,9.40
2023-02-20T14:04:27.654Z,9.40
2023-02-20T14:06:58.826Z,9.40
2023-02-20T14:09:31.403Z,9.50
2023-02-20T14:12:12.513Z,9.50
2023-02-20T14:14:43.630Z,9.50
2023-02-20T14:17:14.526Z,9.50
2023-02-20T14:19:43.390Z,9.50
2023-02-20T14:22:15.898Z,9.60
2023-02-20T14:24:45.243Z,9.60
2023-02-20T14:27:29.114Z,9.60
2023-02-20T14:30:07.308Z,9.60
2023-02-20T14:32:35.775Z,9.60
2023-02-20T14:35:08.873Z,9.60
2023-02-20T14:37:40.572Z,9.60
2023-02-20T14:40:12.254Z,9.60
2023-02-20T14:42:42.869Z,9.60
2023-02-20T14:45:15.265Z,9.60
2023-02-20T14:47:52.793Z,9.70
2023-02-20T14:50:23.507Z,9.70
2023-02-20T14:53:04.889Z,9.70
2023-02-20T14:55:34.278Z,9.70
2023-02-20T14:58:06.659Z,9.70
2023-02-20T15:00:35.660Z,9.70
2023-02-20T15:03:20.751Z,9.80
2023-02-20T15:05:56.737Z,9.70
2023-02-20T15:08:25.449Z,9.70
2023-02-20T15:10:56.309Z,9.80
2023-02-20T15:13:27.322Z,9.80
2023-02-20T15:16:05.264Z,9.80
2023-02-20T15:18:34.677Z,9.80
2023-02-20T15:21:03.184Z,9.80
2023-02-20T15:23:32.522Z,9.80
2023-02-20T15:26:21.794Z,9.80
2023-02-20T15:28:49.779Z,9.80
2023-02-20T15:31:23.356Z,9.80
2023-02-20T15:33:52.836Z,9.90
2023-02-20T15:36:36.284Z,9.80
2023-02-20T15:39:04.370Z,9.90
2023-02-20T15:41:36.323Z,9.90
2023-02-20T15:44:04.795Z,9.90
2023-02-20T15:46:32.846Z,9.90
2023-02-20T15:49:04.930Z,9.90
2023-02-20T15:51:34.688Z,9.90
2023-02-20T15:54:02.742Z,9.90
2023-02-20T15:56:33.139Z,9.90
2023-02-20T15:59:05.563Z,9.90
2023-02-20T16:01:33.729Z,9.90
2023-02-20T16:04:01.957Z,9.90
2023-02-20T16:06:30.027Z,9.90
2023-02-20T16:08:58.833Z,9.90
2023-02-20T16:11:34.631Z,9.90
2023-02-20T16:14:04.139Z,9.90
2023-02-20T16:16:33.819Z,9.90
2023-02-20T16:19:02.009Z,9.90
2023-02-20T16:21:30.172Z,9.90
2023-02-20T16:23:58.321Z,9.90
2023-02-20T16:26:28.303Z,9.90
2023-02-20T16:28:57.501Z,9.90
2023-02-20T16:31:49.140Z,9.80
2023-02-20T16:34:21.985Z,9.80
2023-02-20T16:36:50.399Z,9.80
2023-02-20T16:39:26.252Z,9.80
2023-02-20T16:41:55.318Z,9.80
2023-02-20T16:44:24.922Z,9.80
2023-02-20T16:46:54.299Z,9.80
2023-02-20T16:49:22.362Z,9.80
2023-02-20T16:51:58.974Z,9.80
2023-02-20T16:54:29.828Z,9.80
2023-02-20T16:56:57.786Z,9.70
2023-02-20T16:59:25.771Z,9.70
2023-02-20T17:01:55.207Z,9.70
2023-02-20T17:04:23.293Z,9.70
2023-02-20T17:06:51.544Z,9.70
2023-02-20T17:09:19.516Z,9.70
2023-02-20T17:11:47.822Z,9.70
2023-02-20T17:14:16.101Z,9.60
2023-02-20T17:16:48.652Z,9.70
2023-02-20T17:19:17.992Z,9.60
2023-02-20T17:21:49.339Z,9.60
2023-02-20T17:24:18.207Z,9.60
2023-02-20T17:26:46.456Z,9.60
2023-02-20T17:29:14.468Z,9.60
2023-02-20T17:31:42.553Z,9.60
2023-02-20T17:34:10.544Z,9.50
2023-02-20T17:36:47.895Z,9.50
2023-02-20T17:39:16.435Z,9.50
2023-02-20T17:41:46.883Z,9.50
2023-02-20T17:44:18.302Z,9.50
2023-02-20T17:46:48.868Z,9.50
2023-02-20T17:49:18.631Z,9.50
2023-02-20T17:51:48.444Z,9.50
2023-02-20T17:54:16.613Z,9.50
2023-02-20T17:56:46.383Z,9.50
2023-02-20T17:59:15.688Z,9.40
2023-02-20T18:01:43.918Z,9.50
2023-02-20T18:04:11.957Z,9.50
2023-02-20T18:06:40.554Z,9.40
2023-02-20T18:09:10.505Z,9.50
2023-02-20T18:11:38.584Z,9.50
2023-02-20T18:14:06.849Z,9.40
2023-02-20T18:16:34.890Z,9.40
2023-02-20T18:19:03.348Z,9.40
2023-02-20T18:21:32.056Z,9.40
2023-02-20T18:24:00.030Z,9.40
2023-02-20T18:26:29.496Z,9.40
2023-02-20T18:28:58.737Z,9.40
2023-02-20T18:31:26.759Z,9.40
2023-02-20T18:33:54.888Z,9.40
2023-02-20T18:36:23.177Z,9.40
2023-02-20T18:38:51.292Z,9.30
2023-02-20T18:41:19.300Z,9.30
2023-02-20T18:43:49.335Z,9.30
2023-02-20T18:46:26.479Z,9.30
2023-02-20T18:48:56.572Z,9.30
2023-02-20T18:51:28.800Z,9.30
2023-02-20T18:53:56.779Z,9.30
2023-02-20T18:56:25.374Z,9.30
2023-02-20T18:58:54.823Z,9.30
2023-02-20T19:01:23.844Z,9.30
2023-02-20T19:03:52.696Z,9.30
2023-02-20T19:06:24.606Z,9.20
2023-02-20T19:08:52.732Z,9.20
2023-02-20T19:11:20.794Z,9.20
2023-02-20T19:13:48.732Z,9.20
2023-02-20T19:16:18.337Z,9.20
2023-02-20T19:18:50.704Z,9.20
2023-02-20T19:21:19.145Z,9.20
2023-02-20T19:23:47.602Z,9.20
2023-02-20T19:26:16.357Z,9.20
2023-02-20T19:28:44.553Z,9.20
2023-02-20T19:31:13.634Z,9.20
2023-02-20T19:33:46.152Z,9.20
2023-02-20T19:36:14.118Z,9.20
2023-02-20T19:38:42.193Z,9.10
2023-02-20T19:41:13.243Z,9.20
2023-02-20T19:43:41.523Z,9.10
2023-02-20T19:46:14.504Z,9.10
2023-02-20T19:48:44.897Z,9.10
2023-02-20T19:51:13.191Z,9.10
2023-02-20T19:53:41.449Z,9.10
2023-02-20T19:56:09.847Z,9.10
2023-02-20T19:58:40.066Z,9.10
2023-02-20T20:01:08.218Z,9.10
2023-02-20T20:03:36.301Z,9.00
2023-02-20T20:06:08.230Z,9.00
2023-02-20T20:08:40.186Z,9.00
2023-02-20T20:11:08.378Z,9.00
2023-02-20T20:13:36.391Z,9.00
2023-02-20T20:16:04.490Z,9.10
2023-02-20T20:18:32.481Z,9.00
2023-02-20T20:21:00.625Z,9.00
2023-02-20T20:23:29.990Z,9.10
2023-02-20T20:25:58.215Z,9.10
2023-02-20T20:28:26.228Z,9.00
2023-02-20T20:30:54.412Z,9.00
2023-02-20T20:33:22.675Z,9.10
2023-02-20T20:35:50.642Z,9.10
2023-02-20T20:38:18.628Z,9.10
2023-02-20T20:40:47.929Z,9.10
2023-02-20T20:43:16.381Z,9.10
2023-02-20T20:45:44.354Z,9.10
2023-02-20T20:48:14.541Z,9.10
2023-02-20T20:50:42.518Z,9.10
2023-02-20T20:53:10.552Z,9.10
2023-02-20T20:55:39.048Z,9.10
2023-02-20T20:58:08.654Z,9.20
2023-02-20T21:00:38.813Z,9.20
2023-02-20T21:03:08.850Z,9.20
2023-02-20T21:05:37.093Z,9.20
2023-02-20T21:08:05.887Z,9.20
2023-02-20T21:10:33.952Z,9.20
2023-02-20T21:13:01.951Z,9.20
2023-02-20T21:15:32.164Z,9.30
2023-02-20T21:18:01.241Z,9.30
2023-02-20T21:20:30.757Z,9.30
2023-02-20T21:22:59.255Z,9.30
2023-02-20T21:25:28.540Z,9.40
2023-02-20T21:27:57.886Z,9.40
2023-02-20T21:30:27.079Z,9.40
2023-02-20T21:32:56.540Z,9.40
2023-02-20T21:35:26.183Z,9.40
2023-02-20T21:37:54.319Z,9.50
2023-02-20T21:40:22.364Z,9.40
2023-02-20T21:43:09.827Z,9.40
2023-02-20T21:45:37.937Z,9.50
2023-02-20T21:48:07.487Z,9.50
2023-02-20T21:50:35.610Z,9.50
2023-02-20T21:53:03.766Z,9.50
2023-02-20T21:55:32.209Z,9.50
2023-02-20T21:58:00.179Z,9.50
2023-02-20T22:00:27.088Z,9.60
2023-02-20T22:02:53.939Z,9.60
2023-02-20T22:05:22.172Z,9.60
2023-02-20T22:08:07.741Z,9.60
2023-02-20T22:10:55.012Z,9.60
2023-02-20T22:13:40.555Z,9.60
2023-02-20T22:16:26.215Z,9.60
2023-02-20T22:19:13.179Z,9.60
2023-02-20T22:21:59.929Z,9.60
2023-02-20T22:24:45.572Z,9.70
2023-02-20T22:27:30.988Z,9.60
2023-02-20T22:30:16.635Z,9.60
2023-02-20T22:33:02.178Z,9.60
2023-02-20T22:35:48.119Z,9.60
2023-02-20T22:38:35.311Z,9.60
2023-02-20T22:41:20.804Z,9.60
2023-02-20T22:44:06.338Z,9.50
2023-02-20T22:46:51.969Z,9.50
2023-02-20T22:49:37.354Z,9.50
2023-02-20T22:52:23.113Z,9.40
2023-02-20T22:55:09.680Z,9.40
2023-02-20T22:57:55.403Z,9.40
2023-02-20T23:00:41.028Z,9.40
2023-02-20T23:03:26.690Z,9.40
2023-02-20T23:06:17.915Z,9.40
2023-02-20T23:09:03.964Z,9.40
2023-02-20T23:11:52.260Z,9.40
2023-02-20T23:14:37.697Z,9.40
2023-02-20T23:17:34.855Z,9.40
2023-02-20T23:20:20.873Z,9.30
2023-02-20T23:23:06.389Z,9.30
2023-02-20T23:25:51.825Z,9.30
2023-02-20T23:28:38.659Z,9.30
2023-02-20T23:31:24.318Z,9.30
2023-02-20T23:34:09.855Z,9.20
2023-02-20T23:36:55.531Z,9.20
2023-02-20T23:39:40.930Z,9.20
2023-02-20T23:42:26.505Z,9.20
2023-02-20T23:45:13.688Z,9.20
2023-02-20T23:47:59.717Z,9.20
2023-02-20T23:50:45.280Z,9.20
2023-02-20T23:53:30.930Z,9.20
2023-02-20T23:56:16.549Z,9.20
2023-02-20T23:59:02.038Z,9.20
